Interlaken, Switzerland

9:36 AM CEST on September 03, 2014 (GMT +0200)
Iseltwald Oberdorf | Change Station
CLOSE
Current Station
Personal Weather Station
Location: Iseltwald, BERN
Elevation: 2661 ft
Nearby Weather Stations

Elev 2661 ft 46.71 °N, 7.97 °E | Updated 2 minutes ago

Mostly Cloudy
Mostly Cloudy
50.5 °F
Feels Like 50.5 °F
N
1.6
Wind Variable Wind from SW
Gusts 3.1 mph

Today
High -- | Low -- °F
--% Chance of Precip.
Yesterday
High -- | Low -- °F
Precip. -- in
6:50 AM 8:04 PM
First Quarter, 59% visible
Pressure 30.04 in
Visibility 6.2 miles
Clouds Few 2200 ft
Mostly Cloudy 3600 ft
Dew Point 47 °F
Humidity 88%
Rainfall 0.00 in
Snow Depth Not available.
UV 1 out of 12
Pollen Not available.
Air Quality Not available.
Flu Activity Not available.
METAR LSZB 030720Z 17004KT 9999 FEW022 BKN036 11/10 Q1017 NOSIG

More Conditions Fewer Conditions

Pressure 30.04 in
Visibility 6.2 miles
Clouds Few 2200 ft
Mostly Cloudy 3600 ft
Dew Point 47 °F
Humidity 88%
Rainfall 0.00 in
Snow Depth Not available.
UV 1 out of 12
Pollen Not available.
Air Quality Not available.
Flu Activity Not available.
METAR LSZB 030720Z 17004KT 9999 FEW022 BKN036 11/10 Q1017 NOSIG

More Conditions Fewer Conditions

10-Day Weather Forecast

Almanac

Astronomy

Sep. 03, 2014 Rise Set
Actual Time 6:50 AM CEST 8:04 PM CEST
Civil Twilight 6:19 AM CEST 8:35 PM CEST
Nautical Twilight 5:41 AM CEST 9:12 PM CEST
Astronomical Twilight 5:01 AM CEST 9:52 PM CEST
Moon 3:42 PM CEST 12:19 AM CEST
Length of Visible Light 14h 16m
Length of Day
13h 13m
Tomorrow will be 3m 14s shorter.
First Quarter, 59% of the Moon is Illuminated
Today
First Quarter
Sep 8
Full
Sep 15
Last Quarter
Sep 24
New
Oct 1
First Quarter

Yesterday's Extremes

Country Highs Country Lows

Community

WunderPhotos

Upload Photos

1,749,891 photos uploaded!

Nearby

Snow Depth

Not available.

Earthquake Activity

City Distance Mag. Time & Date
No recent earthquake activity has been reported nearby.
Minimum magnitude displayed is 2.5.

Coastal Water Temperatures

Place Temperature
No Stations Reporting

Nearby Weather Stations